Augusta, New York
Current Conditions -  °F | °C
As of 10:53 AM on Wednesday 28 Jan 2015 (Local Time) from KRME Reporting Station
Unknown Precip Unknown Precip  
Wind Chill: -1°   Ceiling: Unl
Heat Index: 11°   Visibility: 10mi
Dew Point: -3°   Wind: 8mph
Humidity: 54%   Direction: 300°WNW
Pressure: 30.23"   Gusts: NA
Location:  42.9771°N, 75.5023°W
Report Text: KRME 281553Z 30007KT 10SM UP CLR M12/M19 A3023 RMK AO2 UPB32 SLP245 P0000 T11171194
Loading
Personal Weather Stations






























Interactive Weather Map New forecast layout! Learn more

10-Day Weather Forecast

Advertisements
Track Severe Weather on mobile